Time;durP1;ratioP1;P1;durP2;ratioP2;P2;SDS_P1;SDS_P2;PMS_P1;PMS_P2;Temp;Humidity;BMP_temperature;BMP_pressure;BME280_temperature;BME280_humidity;BME280_pressure;Samples;Min_cycle;Max_cycle;Signal;HPM_P1;HPM_P2
2023/09/30 00:00:00;;;;;;;8.17;2.70;;;;;;;12.33;100.00;101683.38;6028615;28;20034;-65
2023/09/30 00:02:56;;;;;;;11.25;2.20;;;;;;;12.18;100.00;101682.03;6024372;28;20037;-65
2023/09/30 00:05:51;;;;;;;11.73;2.77;;;;;;;12.13;100.00;101684.25;6023860;28;20540;-65
2023/09/30 00:08:47;;;;;;;13.57;2.50;;;;;;;12.19;100.00;101702.34;6027051;28;20038;-65
2023/09/30 00:11:42;;;;;;;10.52;2.53;;;;;;;12.07;100.00;101690.09;6027367;28;20162;-64
2023/09/30 00:14:38;;;;;;;14.67;2.63;;;;;;;12.12;100.00;101709.19;6028361;28;20084;-65
2023/09/30 00:17:33;;;;;;;8.63;2.25;;;;;;;12.05;100.00;101708.00;6026793;28;20058;-65
2023/09/30 00:20:28;;;;;;;11.27;3.77;;;;;;;12.00;100.00;101692.47;6028073;28;20030;-65
2023/09/30 00:23:24;;;;;;;11.93;2.90;;;;;;;12.08;100.00;101715.72;6027346;28;20058;-65
2023/09/30 00:26:20;;;;;;;8.13;2.57;;;;;;;12.00;100.00;101715.53;6028055;28;20084;-65
2023/09/30 00:29:16;;;;;;;10.70;2.65;;;;;;;11.90;100.00;101705.66;6023366;28;20026;-64
2023/09/30 00:32:12;;;;;;;10.43;2.60;;;;;;;11.88;100.00;101707.63;6027736;28;20512;-65
2023/09/30 00:35:11;;;;;;;10.95;2.58;;;;;;;11.94;100.00;101722.22;6027384;28;20042;-64
2023/09/30 00:38:06;;;;;;;11.10;2.50;;;;;;;11.91;100.00;101733.94;6027185;28;20054;-64
2023/09/30 00:41:01;;;;;;;12.10;2.63;;;;;;;11.80;100.00;101710.09;6027797;28;20121;-65
2023/09/30 00:43:57;;;;;;;10.37;2.27;;;;;;;11.77;100.00;101725.44;6027659;28;20030;-66
2023/09/30 00:46:54;;;;;;;10.40;2.77;;;;;;;11.80;100.00;101744.63;6026577;28;20023;-64
2023/09/30 00:49:50;;;;;;;12.05;2.53;;;;;;;11.82;100.00;101745.34;6024113;28;20035;-65
2023/09/30 00:52:46;;;;;;;12.35;2.50;;;;;;;11.82;100.00;101734.72;6021803;28;20104;-64
2023/09/30 00:55:41;;;;;;;9.93;2.38;;;;;;;11.82;100.00;101739.22;6021866;28;20437;-65
2023/09/30 00:58:38;;;;;;;9.20;2.40;;;;;;;11.79;100.00;101735.00;6026850;28;20038;-65
2023/09/30 01:01:33;;;;;;;11.55;2.30;;;;;;;11.73;100.00;101729.34;6027027;28;20026;-65
2023/09/30 01:04:29;;;;;;;8.83;2.30;;;;;;;11.71;100.00;101729.44;6025680;28;20100;-64
2023/09/30 01:07:25;;;;;;;13.80;2.50;;;;;;;11.79;100.00;101750.94;6026191;28;20282;-64
2023/09/30 01:10:20;;;;;;;14.77;2.28;;;;;;;11.83;100.00;101760.34;6027261;28;20092;-65
2023/09/30 01:13:15;;;;;;;10.80;2.67;;;;;;;11.78;100.00;101748.41;6026768;28;20031;-65
2023/09/30 01:16:11;;;;;;;9.90;2.50;;;;;;;11.82;100.00;101737.38;6026285;28;20042;-65
2023/09/30 01:19:06;;;;;;;8.98;2.60;;;;;;;11.68;100.00;101720.88;6023460;28;20057;-64
2023/09/30 01:22:05;;;;;;;12.75;2.10;;;;;;;11.74;100.00;101737.16;6025934;28;20478;-64
2023/09/30 01:25:01;;;;;;;16.38;2.33;;;;;;;11.68;100.00;101737.69;6026725;28;20082;-65
2023/09/30 01:27:59;;;;;;;14.23;2.83;;;;;;;11.58;100.00;101739.38;6025529;28;20095;-65
2023/09/30 01:30:55;;;;;;;21.35;3.10;;;;;;;11.54;100.00;101740.63;6026647;28;20072;-65
2023/09/30 01:33:54;;;;;;;11.30;3.15;;;;;;;11.51;100.00;101753.31;6022750;28;20026;-64
2023/09/30 01:36:49;;;;;;;10.82;2.22;;;;;;;11.53;100.00;101749.56;6024309;28;20030;-65
2023/09/30 01:39:45;;;;;;;12.97;2.27;;;;;;;11.42;100.00;101736.31;6025579;28;20053;-64
2023/09/30 01:42:40;;;;;;;11.38;2.58;;;;;;;11.36;100.00;101755.41;6026246;28;20041;-65
2023/09/30 01:45:36;;;;;;;9.95;2.65;;;;;;;11.39;100.00;101771.09;6022926;28;20509;-65
2023/09/30 01:48:31;;;;;;;12.50;2.50;;;;;;;11.30;100.00;101770.06;6025859;28;20097;-64
2023/09/30 01:51:27;;;;;;;12.03;2.47;;;;;;;11.23;100.00;101762.69;6026011;28;20026;-64
2023/09/30 01:54:23;;;;;;;16.63;2.75;;;;;;;11.33;100.00;101779.59;6025460;28;20034;-64
2023/09/30 01:57:18;;;;;;;15.13;2.97;;;;;;;11.33;100.00;101782.22;6025728;28;20073;-64
2023/09/30 02:00:13;;;;;;;10.63;3.13;;;;;;;11.30;100.00;101779.81;6026143;28;20038;-64
2023/09/30 02:03:09;;;;;;;12.00;2.40;;;;;;;11.32;100.00;101791.16;6025946;28;20058;-64
2023/09/30 02:06:04;;;;;;;11.50;2.83;;;;;;;11.19;100.00;101775.38;6025443;28;20788;-65
2023/09/30 02:09:00;;;;;;;9.45;2.10;;;;;;;11.24;100.00;101778.50;6024833;28;20085;-65
2023/09/30 02:11:56;;;;;;;11.73;2.38;;;;;;;11.11;100.00;101751.28;6025896;28;20026;-64
2023/09/30 02:14:51;;;;;;;9.40;2.13;;;;;;;11.23;100.00;101775.97;6025790;28;20540;-64
2023/09/30 02:17:48;;;;;;;11.73;2.10;;;;;;;11.12;100.00;101786.59;6025158;28;20038;-64
2023/09/30 02:20:44;;;;;;;12.10;2.33;;;;;;;11.15;100.00;101786.34;6024417;28;20057;-64
2023/09/30 02:23:40;;;;;;;7.32;1.70;;;;;;;11.13;100.00;101793.59;6024699;28;20026;-64
2023/09/30 02:26:35;;;;;;;8.37;1.90;;;;;;;11.15;100.00;101792.50;6025356;28;20641;-64
2023/09/30 02:29:31;;;;;;;11.05;2.38;;;;;;;11.02;100.00;101788.31;6026448;28;20266;-64
2023/09/30 02:32:26;;;;;;;12.57;2.80;;;;;;;11.04;100.00;101802.28;6030575;28;20038;-64
2023/09/30 02:35:21;;;;;;;10.53;2.00;;;;;;;11.03;100.00;101787.34;6029386;28;20049;-64
2023/09/30 02:38:17;;;;;;;10.80;2.57;;;;;;;11.05;100.00;101769.50;6029393;28;20046;-64
2023/09/30 02:41:12;;;;;;;11.88;2.50;;;;;;;11.14;100.00;101772.22;6030286;28;20113;-64
2023/09/30 02:44:08;;;;;;;11.73;2.37;;;;;;;11.23;100.00;101770.66;6030406;28;20390;-64
2023/09/30 02:47:04;;;;;;;9.07;2.10;;;;;;;11.12;100.00;101770.66;6029338;28;20026;-64
2023/09/30 02:50:00;;;;;;;9.60;2.17;;;;;;;10.89;100.00;101780.50;6030335;28;20038;-64
2023/09/30 02:52:55;;;;;;;7.30;2.10;;;;;;;10.90;100.00;101791.97;6030140;28;20474;-64
2023/09/30 02:55:55;;;;;;;8.50;2.00;;;;;;;10.88;100.00;101805.31;6031123;28;20038;-64
2023/09/30 02:58:51;;;;;;;9.95;2.20;;;;;;;10.74;100.00;101787.84;6029084;28;20026;-64
2023/09/30 03:01:47;;;;;;;8.65;1.92;;;;;;;10.76;100.00;101791.22;6028519;28;20085;-64
2023/09/30 03:04:42;;;;;;;10.98;2.60;;;;;;;10.82;100.00;101797.84;6023592;28;20034;-64
2023/09/30 03:07:38;;;;;;;10.45;2.70;;;;;;;10.79;100.00;101810.53;6029000;28;20026;-64
2023/09/30 03:10:34;;;;;;;10.57;2.70;;;;;;;10.69;100.00;101799.78;6029746;28;20405;-64
2023/09/30 03:13:29;;;;;;;10.25;2.83;;;;;;;10.74;100.00;101801.09;6029791;28;20258;-64
2023/09/30 03:16:24;;;;;;;10.10;2.10;;;;;;;10.82;100.00;101781.09;6029209;28;20036;-64
2023/09/30 03:19:19;;;;;;;8.50;2.13;;;;;;;10.88;100.00;101809.78;6029032;28;20029;-64
2023/09/30 03:22:15;;;;;;;12.47;3.23;;;;;;;10.69;100.00;101803.28;6028176;28;20026;-64
2023/09/30 03:25:11;;;;;;;9.70;2.50;;;;;;;10.72;100.00;101803.03;6026406;28;20057;-64
2023/09/30 03:28:07;;;;;;;8.52;1.85;;;;;;;10.79;100.00;101806.03;6028928;28;20081;-64
2023/09/30 03:31:04;;;;;;;10.98;2.53;;;;;;;10.82;100.00;101797.03;6028507;28;20049;-64
2023/09/30 03:34:00;;;;;;;10.73;2.15;;;;;;;10.83;100.00;101801.34;6029385;28;20355;-64
2023/09/30 03:36:58;;;;;;;19.33;2.75;;;;;;;10.92;100.00;101808.59;6027926;28;20054;-65
2023/09/30 03:39:54;;;;;;;11.88;2.40;;;;;;;10.88;100.00;101789.41;6028459;28;20065;-64
2023/09/30 03:42:50;;;;;;;12.60;2.17;;;;;;;11.02;100.00;101806.88;6029074;28;20030;-64
2023/09/30 03:45:45;;;;;;;7.35;1.90;;;;;;;10.94;100.00;101775.66;6028453;28;20084;-63
2023/09/30 03:48:41;;;;;;;11.60;2.77;;;;;;;10.97;100.00;101783.38;6028573;28;20030;-64
2023/09/30 03:51:37;;;;;;;16.25;3.47;;;;;;;11.04;100.00;101797.00;6028565;28;20288;-64
2023/09/30 03:54:32;;;;;;;10.10;2.00;;;;;;;11.05;100.00;101796.03;6020749;28;20045;-64
2023/09/30 03:57:27;;;;;;;8.87;2.37;;;;;;;11.13;100.00;101804.22;6016817;28;20497;-64
2023/09/30 04:00:24;;;;;;;9.50;2.17;;;;;;;11.01;100.00;101778.66;6027703;28;20270;-64
2023/09/30 04:03:19;;;;;;;12.98;2.58;;;;;;;11.10;100.00;101792.03;6026877;28;20036;-64
2023/09/30 04:06:15;;;;;;;12.27;2.27;;;;;;;11.09;100.00;101794.81;6019603;28;20026;-64
2023/09/30 04:09:10;;;;;;;12.60;2.43;;;;;;;11.02;100.00;101775.03;6021844;28;20280;-64
2023/09/30 04:12:05;;;;;;;10.23;2.30;;;;;;;11.09;100.00;101790.34;6028267;28;20034;-64
2023/09/30 04:15:01;;;;;;;9.10;2.22;;;;;;;11.14;100.00;101792.66;6028103;28;20478;-64
2023/09/30 04:17:56;;;;;;;14.88;2.40;;;;;;;11.19;100.00;101798.44;6027543;28;20030;-64
2023/09/30 04:20:52;;;;;;;9.23;2.90;;;;;;;11.13;100.00;101788.31;6027923;28;20409;-64
2023/09/30 04:23:49;;;;;;;10.93;2.78;;;;;;;11.19;100.00;101806.41;6025789;28;20659;-64
2023/09/30 04:26:44;;;;;;;11.55;3.17;;;;;;;11.16;100.00;101809.28;6021220;28;20450;-64
2023/09/30 04:29:41;;;;;;;9.73;2.58;;;;;;;11.13;100.00;101793.59;6027760;28;20034;-64
2023/09/30 04:32:36;;;;;;;8.43;2.72;;;;;;;11.18;100.00;101810.00;6026282;28;20046;-64
2023/09/30 04:35:32;;;;;;;12.48;3.13;;;;;;;11.13;100.00;101794.47;6027459;28;20101;-64
2023/09/30 04:38:27;;;;;;;11.47;3.03;;;;;;;11.10;100.00;101791.19;6025433;28;20378;-64
2023/09/30 04:41:25;;;;;;;10.40;2.90;;;;;;;11.07;100.00;101807.38;6027717;28;20359;-64
2023/09/30 04:44:22;;;;;;;11.00;2.58;;;;;;;11.12;100.00;101808.69;6027444;28;20037;-64
2023/09/30 04:47:21;;;;;;;9.27;2.65;;;;;;;11.11;100.00;101812.31;6026878;28;20022;-64
2023/09/30 04:50:16;;;;;;;12.32;2.80;;;;;;;11.09;100.00;101810.72;6025327;28;20092;-64
2023/09/30 04:53:12;;;;;;;11.83;3.33;;;;;;;11.06;100.00;101818.97;6023749;28;20481;-64
2023/09/30 04:56:08;;;;;;;14.75;3.20;;;;;;;11.06;100.00;101824.28;6028525;28;20270;-64
2023/09/30 04:59:04;;;;;;;11.93;3.40;;;;;;;11.00;100.00;101808.84;6026976;28;20034;-64
2023/09/30 05:02:00;;;;;;;9.98;2.88;;;;;;;11.12;100.00;101829.06;6026743;28;20033;-64
2023/09/30 05:04:55;;;;;;;13.38;3.40;;;;;;;11.12;100.00;101829.06;6026096;28;20521;-64
2023/09/30 05:07:51;;;;;;;19.70;3.75;;;;;;;11.17;100.00;101829.56;6026468;28;20034;-64
2023/09/30 05:10:46;;;;;;;13.05;2.80;;;;;;;11.06;100.00;101825.09;6026849;28;20401;-64
2023/09/30 05:13:42;;;;;;;8.93;3.00;;;;;;;11.08;100.00;101830.31;6027082;28;20029;-64
2023/09/30 05:16:38;;;;;;;10.13;2.95;;;;;;;11.18;100.00;101833.91;6026710;28;20101;-64
2023/09/30 05:19:33;;;;;;;15.30;3.33;;;;;;;11.00;100.00;101814.13;6026268;28;20092;-64
2023/09/30 05:22:29;;;;;;;12.50;3.40;;;;;;;11.05;100.00;101828.72;6025677;28;20030;-64
2023/09/30 05:25:26;;;;;;;9.27;2.88;;;;;;;11.04;100.00;101842.13;6017584;28;20285;-64
2023/09/30 05:28:21;;;;;;;12.18;3.15;;;;;;;10.98;100.00;101832.00;6026247;28;20030;-64
2023/09/30 05:31:17;;;;;;;10.30;3.80;;;;;;;11.06;100.00;101846.31;6026734;28;20389;-64
2023/09/30 05:34:12;;;;;;;8.88;3.40;;;;;;;11.01;100.00;101839.69;6022972;28;20038;-64
2023/09/30 05:37:08;;;;;;;10.68;2.90;;;;;;;10.97;100.00;101843.56;6025429;28;20034;-65
2023/09/30 05:40:09;;;;;;;15.83;4.67;;;;;;;10.96;100.00;101839.22;6026164;28;20038;-64
2023/09/30 05:43:05;;;;;;;18.88;4.00;;;;;;;11.07;100.00;101860.44;6026454;28;20018;-64
2023/09/30 05:46:00;;;;;;;11.70;3.17;;;;;;;11.14;100.00;101853.72;6026197;28;20054;-64
2023/09/30 05:48:56;;;;;;;14.83;2.90;;;;;;;11.17;100.00;101848.16;6025594;28;20038;-65
2023/09/30 05:51:51;;;;;;;14.37;3.17;;;;;;;11.10;100.00;101846.94;6020431;28;20080;-64
2023/09/30 05:54:48;;;;;;;20.23;3.80;;;;;;;11.09;100.00;101839.94;6028385;28;20292;-63
2023/09/30 05:57:44;;;;;;;11.98;3.65;;;;;;;11.18;100.00;101849.84;6025539;28;20254;-64
2023/09/30 06:00:41;;;;;;;15.67;3.83;;;;;;;11.24;100.00;101855.50;6025998;28;20524;-64
2023/09/30 06:03:40;;;;;;;18.13;3.28;;;;;;;11.24;100.00;101849.34;6017141;28;20034;-64
2023/09/30 06:06:35;;;;;;;10.13;3.40;;;;;;;11.30;100.00;101855.03;6024335;28;20113;-64
2023/09/30 06:09:31;;;;;;;12.67;3.33;;;;;;;11.36;100.00;101835.06;6017651;28;20068;-64
2023/09/30 06:12:26;;;;;;;13.00;4.03;;;;;;;11.49;100.00;101842.91;6025950;28;20042;-64
2023/09/30 06:15:25;;;;;;;14.23;4.03;;;;;;;11.66;100.00;101853.03;6024609;28;20042;-64
2023/09/30 06:18:20;;;;;;;18.65;4.68;;;;;;;11.69;100.00;101872.22;6023643;28;20030;-64
2023/09/30 06:21:20;;;;;;;18.10;4.07;;;;;;;11.62;100.00;101873.69;6025855;28;20092;-64
2023/09/30 06:24:15;;;;;;;8.73;3.72;;;;;;;11.69;100.00;101871.38;6025123;28;20041;-64
2023/09/30 06:27:13;;;;;;;15.80;4.17;;;;;;;11.85;100.00;101899.25;6019409;28;20038;-64
2023/09/30 06:30:09;;;;;;;13.52;3.97;;;;;;;11.85;100.00;101885.94;6025449;28;20493;-64
2023/09/30 06:33:04;;;;;;;19.45;3.95;;;;;;;11.93;100.00;101901.28;6025521;28;20052;-65
2023/09/30 06:36:02;;;;;;;16.33;4.38;;;;;;;12.04;100.00;101908.41;6025014;28;20393;-64
2023/09/30 06:38:58;;;;;;;10.50;3.58;;;;;;;11.99;100.00;101890.13;6015729;28;20130;-65
2023/09/30 06:41:54;;;;;;;14.85;3.78;;;;;;;12.00;100.00;101906.94;6015721;28;20031;-64
2023/09/30 06:44:49;;;;;;;12.57;3.10;;;;;;;12.08;100.00;101915.97;6024131;28;20042;-64
2023/09/30 06:47:45;;;;;;;13.63;3.90;;;;;;;12.17;100.00;101911.72;6017086;28;20049;-65
2023/09/30 06:50:48;;;;;;;8.65;3.22;;;;;;;12.27;100.00;101915.31;6017630;28;20113;-65
2023/09/30 06:53:43;;;;;;;17.27;3.95;;;;;;;12.42;100.00;101919.34;6019455;28;20046;-65
2023/09/30 06:56:39;;;;;;;12.63;3.20;;;;;;;12.44;100.00;101912.94;6028273;28;20042;-63
2023/09/30 06:59:34;;;;;;;12.50;3.03;;;;;;;12.69;100.00;101918.84;6018330;28;20278;-65
2023/09/30 07:02:29;;;;;;;10.70;3.33;;;;;;;12.82;100.00;101927.47;6013881;28;20034;-64
2023/09/30 07:05:24;;;;;;;13.60;3.57;;;;;;;12.99;100.00;101924.22;6011722;28;20038;-65
2023/09/30 07:08:22;;;;;;;13.20;2.90;;;;;;;13.06;100.00;101923.56;6025550;28;20300;-63
2023/09/30 07:11:29;;;;;;;11.25;2.92;;;;;;;13.18;100.00;101918.19;6025288;28;20517;-64
2023/09/30 07:14:25;;;;;;;13.90;3.35;;;;;;;13.34;100.00;101931.84;6024886;28;20034;-64
2023/09/30 07:17:20;;;;;;;15.00;3.63;;;;;;;13.36;100.00;101919.22;6024167;28;20372;-63
2023/09/30 07:20:15;;;;;;;18.17;3.63;;;;;;;13.54;100.00;101925.59;6029338;28;21005;-64
2023/09/30 07:23:13;;;;;;;9.10;2.73;;;;;;;13.66;100.00;101929.84;6023597;28;20121;-65
2023/09/30 07:26:08;;;;;;;10.10;2.50;;;;;;;13.68;100.00;101925.22;6027346;28;20057;-65
2023/09/30 07:29:04;;;;;;;17.08;2.85;;;;;;;14.16;100.00;101949.31;6028650;28;20490;-65
2023/09/30 07:32:01;;;;;;;12.63;2.42;;;;;;;14.25;100.00;101941.31;6028508;28;20374;-65
2023/09/30 07:34:56;;;;;;;14.40;3.03;;;;;;;14.40;100.00;101939.13;6023836;28;20097;-66
2023/09/30 07:37:53;;;;;;;8.00;2.30;;;;;;;14.47;100.00;101945.56;6028360;28;20485;-64
2023/09/30 07:40:48;;;;;;;9.43;2.47;;;;;;;14.58;100.00;101936.56;6028736;28;20573;-64
2023/09/30 07:43:44;;;;;;;6.90;2.08;;;;;;;14.91;100.00;101957.47;6029164;28;20042;-65
2023/09/30 07:46:39;;;;;;;9.73;2.30;;;;;;;15.11;100.00;101961.78;6021636;28;20034;-65
2023/09/30 07:49:34;;;;;;;9.77;3.33;;;;;;;15.10;100.00;101946.75;6015806;28;20050;-65
2023/09/30 07:52:30;;;;;;;11.23;2.43;;;;;;;15.07;100.00;101952.38;6014710;28;20335;-65
2023/09/30 07:55:25;;;;;;;9.63;2.80;;;;;;;15.27;100.00;101950.50;6017969;28;20049;-65
2023/09/30 07:58:20;;;;;;;8.60;2.37;;;;;;;15.59;100.00;101958.13;6012768;28;20046;-65
2023/09/30 08:01:17;;;;;;;13.90;3.13;;;;;;;15.63;100.00;101960.34;6018258;28;20791;-64
2023/09/30 08:04:13;;;;;;;10.80;2.67;;;;;;;15.83;100.00;101966.44;6028253;28;20051;-64
2023/09/30 08:07:09;;;;;;;10.07;2.60;;;;;;;15.92;100.00;101979.78;6026568;28;20038;-65
2023/09/30 08:10:06;;;;;;;7.82;2.47;;;;;;;15.97;100.00;101968.63;6028045;28;20038;-64
2023/09/30 08:13:02;;;;;;;9.50;2.00;;;;;;;15.95;100.00;101967.94;6028183;28;20076;-66
2023/09/30 08:15:58;;;;;;;10.90;2.67;;;;;;;15.97;100.00;101973.97;6028010;28;20034;-65
2023/09/30 08:18:53;;;;;;;6.60;2.10;;;;;;;16.07;100.00;101970.25;6027628;28;20488;-65
2023/09/30 08:21:49;;;;;;;9.00;2.47;;;;;;;16.25;100.00;101983.63;6028149;28;20038;-65
2023/09/30 08:24:44;;;;;;;11.27;2.20;;;;;;;16.25;100.00;101978.28;6027962;28;20049;-64
2023/09/30 08:27:39;;;;;;;11.77;2.20;;;;;;;16.66;100.00;101985.75;6025454;28;20285;-64
2023/09/30 08:30:38;;;;;;;9.90;2.17;;;;;;;16.60;100.00;101980.19;6027995;28;20470;-64
2023/09/30 08:33:33;;;;;;;10.95;2.38;;;;;;;16.48;100.00;101963.47;6027680;28;20266;-64
2023/09/30 08:36:29;;;;;;;7.47;2.42;;;;;;;16.55;100.00;101990.50;6027701;28;20037;-66
2023/09/30 08:39:27;;;;;;;8.88;2.38;;;;;;;16.51;100.00;101983.72;6027103;28;20077;-64
2023/09/30 08:42:24;;;;;;;9.93;2.00;;;;;;;16.72;100.00;101986.13;6027293;28;20104;-65
2023/09/30 08:45:20;;;;;;;7.47;2.35;;;;;;;16.74;100.00;101987.63;6018572;28;20105;-64
2023/09/30 08:48:15;;;;;;;9.95;2.70;;;;;;;16.65;100.00;101981.41;6033331;28;20052;-65
2023/09/30 08:51:11;;;;;;;9.20;2.30;;;;;;;16.76;100.00;101985.66;6025458;28;20049;-64
2023/09/30 08:54:06;;;;;;;10.30;2.13;;;;;;;16.94;100.00;101980.28;6026887;28;20403;-65
2023/09/30 08:57:04;;;;;;;8.93;2.80;;;;;;;17.29;100.00;102001.63;6027589;28;20494;-65
2023/09/30 09:00:00;;;;;;;7.53;2.05;;;;;;;17.37;99.87;101988.25;6014962;28;20031;-65
2023/09/30 09:02:55;;;;;;;12.75;2.50;;;;;;;17.15;100.00;101994.16;6025774;28;20025;-65
2023/09/30 09:05:57;;;;;;;9.50;2.40;;;;;;;17.44;100.00;101994.69;6023878;28;20030;-65
2023/09/30 09:08:52;;;;;;;7.82;1.83;;;;;;;17.52;99.18;101980.47;6026026;28;20381;-65
2023/09/30 09:11:48;;;;;;;10.00;2.40;;;;;;;17.43;98.23;102009.09;6023218;28;20030;-65
2023/09/30 09:14:43;;;;;;;13.35;2.50;;;;;;;17.62;97.88;102003.53;6035937;28;20038;-65
2023/09/30 09:17:45;;;;;;;8.45;2.00;;;;;;;17.81;95.87;102007.81;6019102;28;20026;-65
2023/09/30 09:20:40;;;;;;;9.25;2.70;;;;;;;17.64;94.88;101996.16;6026807;28;20065;-64
2023/09/30 09:23:42;;;;;;;10.33;2.27;;;;;;;17.79;95.68;102005.28;6026304;28;20030;-65
2023/09/30 09:26:38;;;;;;;11.70;1.98;;;;;;;17.82;95.59;102012.19;6022163;28;20031;-65
2023/09/30 09:29:35;;;;;;;11.70;2.42;;;;;;;17.83;96.79;102012.00;6021439;28;20034;-65
2023/09/30 09:32:30;;;;;;;13.20;2.80;;;;;;;17.81;98.04;102003.28;6024448;28;20035;-66
2023/09/30 09:35:30;;;;;;;7.60;2.00;;;;;;;17.62;96.66;101998.16;6022706;28;20057;-65
2023/09/30 09:38:25;;;;;;;8.20;1.90;;;;;;;17.77;97.72;102004.59;6018453;28;20030;-65
2023/09/30 09:41:21;;;;;;;6.80;2.00;;;;;;;18.06;95.07;102006.91;6026326;28;20034;-65
2023/09/30 09:44:17;;;;;;;8.93;2.07;;;;;;;18.65;90.88;101992.44;6023248;28;20457;-64
2023/09/30 09:47:13;;;;;;;8.32;1.50;;;;;;;18.92;88.02;101997.47;6024376;28;20348;-65
2023/09/30 09:50:10;;;;;;;10.77;1.85;;;;;;;19.20;85.07;101980.97;6026113;28;20489;-66
2023/09/30 09:53:05;;;;;;;10.63;2.20;;;;;;;18.77;86.38;101983.03;6022499;28;20109;-65
2023/09/30 09:56:01;;;;;;;6.65;1.88;;;;;;;18.30;87.88;101979.25;6027159;28;20081;-65
2023/09/30 09:58:56;;;;;;;12.52;1.95;;;;;;;18.04;90.38;101984.75;6019293;28;20084;-65
2023/09/30 10:01:52;;;;;;;7.87;2.03;;;;;;;18.49;87.52;101986.19;6028824;28;20046;-65
2023/09/30 10:04:47;;;;;;;8.00;1.83;;;;;;;18.33;87.99;101976.25;6024891;28;20030;-65
2023/09/30 10:08:04;;;;;;;7.57;2.35;;;;;;;18.05;87.60;101986.41;6025024;28;20065;-65
2023/09/30 10:11:01;;;;;;;10.02;2.20;;;;;;;18.00;89.83;101980.69;6017993;28;20041;-65
2023/09/30 10:14:02;;;;;;;9.95;1.92;;;;;;;18.30;88.76;101979.25;6022899;28;20034;-65
2023/09/30 10:16:58;;;;;;;7.82;1.77;;;;;;;18.65;86.33;101984.38;6025279;28;20037;-65
2023/09/30 10:20:06;;;;;;;7.35;2.00;;;;;;;18.76;80.56;101991.25;6025309;28;20053;-65
2023/09/30 10:23:17;;;;;;;10.82;1.73;;;;;;;18.94;79.10;102003.50;6020302;28;20513;-65
2023/09/30 10:26:14;;;;;;;4.90;1.38;;;;;;;19.12;77.72;101994.44;6024661;28;20117;-65
2023/09/30 10:29:10;;;;;;;5.25;1.83;;;;;;;18.83;77.32;101987.72;6023451;28;20049;-65
2023/09/30 10:32:05;;;;;;;8.63;1.25;;;;;;;18.47;78.76;101983.66;6016739;28;20026;-64
2023/09/30 10:35:01;;;;;;;6.57;1.20;;;;;;;18.26;78.60;101996.72;6022343;28;20042;-65
2023/09/30 10:38:24;;;;;;;6.32;1.80;;;;;;;18.10;79.18;102002.06;6018033;28;20038;-65
2023/09/30 10:41:38;;;;;;;6.45;1.70;;;;;;;17.99;81.93;102011.22;6018966;28;20053;-65
2023/09/30 10:44:34;;;;;;;7.93;1.40;;;;;;;17.76;81.11;102008.31;6017668;28;20046;-65
2023/09/30 10:47:30;;;;;;;5.70;2.00;;;;;;;18.03;77.30;102009.06;6021600;28;20104;-65
2023/09/30 10:50:54;;;;;;;7.15;1.40;;;;;;;18.52;76.14;102008.22;6023058;28;20037;-65
2023/09/30 10:53:56;;;;;;;6.13;1.50;;;;;;;18.30;74.09;102014.19;6027861;28;20050;-65
2023/09/30 10:56:54;;;;;;;7.07;1.30;;;;;;;18.08;75.75;102001.34;6024925;28;20065;-66
2023/09/30 11:00:08;;;;;;;5.75;1.20;;;;;;;17.90;76.24;102022.09;6022275;28;20041;-65
2023/09/30 11:03:05;;;;;;;6.55;1.30;;;;;;;18.25;76.71;102000.41;6029788;28;20145;-65
2023/09/30 11:06:00;;;;;;;4.85;1.40;;;;;;;18.52;75.07;101985.88;6029748;28;20049;-65
2023/09/30 11:09:00;;;;;;;6.40;1.70;;;;;;;18.24;74.88;101993.34;6025512;28;20026;-65
2023/09/30 11:11:56;;;;;;;5.50;1.48;;;;;;;18.70;74.17;101990.06;6029451;28;20368;-65
2023/09/30 11:14:59;;;;;;;4.13;1.10;;;;;;;19.01;71.51;101982.19;6029691;28;20037;-65
2023/09/30 11:18:12;;;;;;;4.97;1.80;;;;;;;19.25;69.61;101981.28;6028881;28;20045;-65
2023/09/30 11:21:12;;;;;;;5.45;1.25;;;;;;;19.53;64.73;101971.84;6023678;28;20109;-65
2023/09/30 11:24:08;;;;;;;5.05;1.08;;;;;;;19.83;61.35;101980.97;6028227;28;20489;-65
2023/09/30 11:27:04;;;;;;;5.00;1.20;;;;;;;19.93;58.82;101979.75;6028167;28;20045;-65
2023/09/30 11:30:02;;;;;;;4.22;1.17;;;;;;;20.14;58.44;101976.41;6029366;28;20038;-65
2023/09/30 11:33:00;;;;;;;5.82;1.17;;;;;;;20.01;59.43;101977.00;6029088;28;20394;-65
2023/09/30 11:36:05;;;;;;;4.97;1.30;;;;;;;20.24;60.22;101981.59;6029207;28;20034;-65
2023/09/30 11:39:03;;;;;;;4.28;1.75;;;;;;;19.93;58.35;101968.13;6026785;28;20085;-65
2023/09/30 11:42:01;;;;;;;3.47;1.15;;;;;;;19.91;60.00;101971.00;6028240;28;20030;-65
2023/09/30 11:44:56;;;;;;;4.10;1.40;;;;;;;20.05;55.79;101970.25;6020859;28;20482;-65
2023/09/30 11:47:51;;;;;;;4.63;1.17;;;;;;;20.31;55.60;101961.88;6028296;28;20073;-66
2023/09/30 11:50:48;;;;;;;4.93;1.40;;;;;;;20.41;57.07;101964.34;6028829;28;20049;-66
2023/09/30 11:53:43;;;;;;;6.15;1.25;;;;;;;20.36;57.13;101964.00;6027103;28;20113;-65
2023/09/30 11:56:38;;;;;;;6.88;1.35;;;;;;;20.35;57.08;101967.75;6032126;28;20444;-65
2023/09/30 11:59:34;;;;;;;5.60;1.00;;;;;;;20.37;56.02;101954.94;6028055;28;20034;-65
2023/09/30 12:02:29;;;;;;;5.03;1.10;;;;;;;20.35;54.93;101962.34;6028319;28;20032;-65
2023/09/30 12:05:24;;;;;;;5.55;1.30;;;;;;;20.22;55.33;101967.47;6027905;28;20379;-65
2023/09/30 12:08:20;;;;;;;6.20;1.13;;;;;;;19.89;55.83;101956.88;6027212;28;20030;-65
2023/09/30 12:11:15;;;;;;;3.30;1.13;;;;;;;19.60;56.83;101968.28;6028406;28;20037;-65
2023/09/30 12:14:12;;;;;;;3.92;1.02;;;;;;;19.14;56.84;101954.75;6027437;28;20038;-65
2023/09/30 12:17:10;;;;;;;3.05;0.82;;;;;;;18.90;57.39;101956.47;6027856;28;20437;-65
2023/09/30 12:20:06;;;;;;;4.53;0.90;;;;;;;18.76;57.82;101970.59;6025835;28;20031;-64
2023/09/30 12:23:05;;;;;;;4.65;1.15;;;;;;;18.65;56.24;101954.81;6028322;28;20029;-64
2023/09/30 12:26:00;;;;;;;2.30;0.88;;;;;;;19.01;56.32;101957.97;6027899;28;20037;-64
2023/09/30 12:28:55;;;;;;;6.03;1.37;;;;;;;19.16;54.19;101958.13;6026010;28;20069;-65
2023/09/30 12:31:52;;;;;;;6.57;1.70;;;;;;;19.31;54.40;101942.94;6028159;28;20272;-65
2023/09/30 12:34:47;;;;;;;4.03;1.52;;;;;;;19.73;52.83;101939.97;6026888;28;20474;-65
2023/09/30 12:37:45;;;;;;;5.97;1.40;;;;;;;19.93;52.80;101920.50;6017404;28;20034;-65
2023/09/30 12:40:40;;;;;;;4.53;1.30;;;;;;;20.18;51.96;101935.50;6018616;28;20038;-65
2023/09/30 12:43:37;;;;;;;3.50;1.00;;;;;;;20.18;52.61;101934.66;6027585;28;20496;-64
2023/09/30 12:46:36;;;;;;;2.97;0.98;;;;;;;20.31;53.37;101931.38;6027081;28;20477;-65
2023/09/30 12:49:31;;;;;;;6.80;1.30;;;;;;;20.41;51.33;101930.13;6027119;28;20488;-65
2023/09/30 12:52:27;;;;;;;6.37;1.37;;;;;;;20.64;49.87;101936.34;6027774;28;20034;-65
2023/09/30 12:55:22;;;;;;;5.70;1.13;;;;;;;20.75;50.67;101916.19;6032541;28;20045;-65
2023/09/30 12:58:18;;;;;;;4.77;1.20;;;;;;;20.81;50.29;101920.03;6023507;28;20169;-66
2023/09/30 13:01:14;;;;;;;5.10;1.10;;;;;;;20.83;49.30;101924.22;6027622;28;20037;-65
2023/09/30 13:04:09;;;;;;;8.48;1.63;;;;;;;20.66;49.92;101912.72;6027050;28;20470;-65
2023/09/30 13:07:05;;;;;;;6.55;1.33;;;;;;;20.82;50.76;101932.50;6026574;28;20031;-65
2023/09/30 13:10:00;;;;;;;4.53;1.30;;;;;;;20.35;50.72;101946.19;6026819;28;20038;-65
2023/09/30 13:12:55;;;;;;;3.30;1.00;;;;;;;20.27;51.62;101930.09;6024786;28;20042;-65
2023/09/30 13:15:51;;;;;;;4.17;1.17;;;;;;;20.51;50.83;101935.28;6025793;28;20029;-65
2023/09/30 13:18:47;;;;;;;3.87;1.07;;;;;;;20.52;50.06;101940.47;6025317;28;20449;-66
2023/09/30 13:21:44;;;;;;;8.32;1.77;;;;;;;20.23;50.03;101923.31;6026137;28;20035;-65
2023/09/30 13:24:42;;;;;;;4.60;1.20;;;;;;;19.92;51.36;101916.13;6025651;28;20030;-65
2023/09/30 13:27:39;;;;;;;6.72;1.23;;;;;;;20.15;51.98;101924.22;6025161;28;20081;-65
2023/09/30 13:30:35;;;;;;;6.22;1.30;;;;;;;19.83;51.26;101917.19;6024835;28;20426;-66